Atlantic - Newfoundland: Past 24 Hour Conditions

 

St. John's Int'l Airport

05:30 PM NDT 21 October 2014
This table is a summary of hourly weather conditions for the past 24 hours.
Date / Time
(NDT)
Wind(knots) Conditions Visibility(km) Pressure(kPa) Air tempC) Relative humidity(%) Dew pointC)
21 October 2014
17:30 W 14 gust 21 Partly Cloudy 24 102.0 8 70 3
16:30 W 18 Mainly Sunny 24 101.9 9 67 4
15:30 W 22 gust 27 Partly Cloudy 24 101.9 11 61 4
14:30 W 18 gust 24 Partly Cloudy 24 101.8 11 61 3
13:30 W 16 gust 27 Partly Cloudy 24 101.8 11 60 4
12:30 W 20 gust 27 Partly Cloudy 24 101.7 10 69 4
11:30 W 24 gust 32 Partly Cloudy 24 101.6 10 65 4
10:30 W 16 gust 27 Mainly Sunny 24 101.6 10 73 5
9:30 WSW 21 gust 27 Mainly Sunny 24 101.5 8 80 5
8:30 WSW 15 gust 27 Partly Cloudy 24 101.4 7 83 4
7:30 W 19 gust 27 Partly Cloudy 24 101.3 7 87 5
6:30 WSW 20 gust 27 Mostly Cloudy 24 101.2 7 80 4
5:30 WSW 23 gust 31 Partly Cloudy 24 101.1 7 76 3
4:30 WSW 19 gust 35 Mainly Clear 24 101.0 7 77 4
3:30 WSW 21 gust 35 Mainly Clear 24 100.9 7 77 4
2:30 WSW 20 gust 33 Partly Cloudy 24 100.9 7 81 4
1:30 WSW 27 gust 34 Light Rainshower 19 100.8 7 87 5
0:30 WSW 21 gust 34 Partly Cloudy 24 100.7 8 77 4
20 October 2014
23:30 WSW 31 gust 40 Partly Cloudy 24 100.7 8 81 5
22:30 W 25 gust 33 Mostly Cloudy 24 100.7 9 79 5
21:30 SW 22 gust 31 Mostly Cloudy 24 100.6 9 74 5
20:30 SW 20 gust 33 Mostly Cloudy 24 100.5 9 77 6
19:30 WSW 25 gust 38 Mainly Clear 24 100.4 9 78 6
18:30 WSW 27 gust 36 Mainly Clear 24 100.3 10 79 7
17:30 WSW 23 gust 37 Mainly Sunny 24 100.2 11 78 8
 
Map of Atlantic - Newfoundland marine weather areas Southwestern Grand Banks - 44138 Banquereau - 44139 Tail of the Bank - 44140 Nickerson Bank - 44251 Northeast Burgeo Bank - 44255 Blanc-Sablon Airport Cap Whittle Chevery Natashquan Airport Heath Point Miscou Island Grand Étang Ingonish Beach North Mountain St.Paul Island J.A. Douglas McCurdy Sydney Airport Charlottetown Airport East Point North Cape Argentia Bonavista Burgeo Cape Race Corner Brook Daniel's Harbour Englee Ferolle Point La Scie Port aux Basques Rocky Harbour Sagona Island St. Anthony Airport St. John's Int'l Airport St. Lawrence Stephenville Airport Twillingate Winterland Wreckhouse Cartwright Airport Mary's Harbour Grates Cove Pool's Island Marticot Island Long Pond Îles de la Madeleine Airport
Legend: buoyBuoy land stationLand Station